Time;durP1;ratioP1;P1;durP2;ratioP2;P2;SDS_P1;SDS_P2;PMS_P1;PMS_P2;Temp;Humidity;BMP_temperature;BMP_pressure;BME280_temperature;BME280_humidity;BME280_pressure;Samples;Min_cycle;Max_cycle;Signal;HPM_P1;HPM_P2
2021/04/11 12:34:48;;;;;;;;;;;24.00;31.70;;;;;;5131346;27;19922;-72
2021/04/11 12:37:19;;;;;;;;;;;23.90;32.00;;;;;;5130420;28;20036;-71
2021/04/11 12:39:45;;;;;;;;;;;23.90;32.30;;;;;;5130952;28;19923;-71
2021/04/11 12:42:18;;;;;;;;;;;23.80;32.70;;;;;;5131318;28;19924;-71
2021/04/11 12:44:48;;;;;;;;;;;23.50;32.70;;;;;;5131312;27;19924;-70
2021/04/11 12:47:25;;;;;;;;;;;23.10;33.30;;;;;;5131065;27;20548;-71
2021/04/11 12:49:55;;;;;;;;;;;22.80;34.50;;;;;;5131213;28;19924;-72
2021/04/11 12:52:28;;;;;;;;;;;22.60;34.40;;;;;;5131089;27;20055;-71
2021/04/11 12:55:00;;;;;;;;;;;22.30;36.70;;;;;;5130880;27;19953;-71
2021/04/11 12:57:28;;;;;;;;;;;22.20;36.90;;;;;;5130726;28;19924;-71
2021/04/11 12:59:57;;;;;;;;;;;22.10;37.20;;;;;;5130560;28;19927;-71
2021/04/11 13:02:27;;;;;;;;;;;22.10;37.50;;;;;;5130709;28;19934;-70
2021/04/11 13:05:02;;;;;;;;;;;22.00;37.70;;;;;;5129269;28;20017;-71
2021/04/11 13:07:30;;;;;;;;;;;22.00;37.90;;;;;;5110360;28;20023;-71
2021/04/11 13:10:07;;;;;;;;;;;22.00;38.00;;;;;;5127162;28;19934;-71
2021/04/11 13:12:39;;;;;;;;;;;22.10;38.40;;;;;;5130779;27;19974;-71
2021/04/11 13:15:09;;;;;;;;;;;22.10;38.50;;;;;;5130531;27;20295;-71
2021/04/11 13:17:38;;;;;;;;;;;22.20;38.50;;;;;;5130631;27;20021;-71
2021/04/11 13:20:15;;;;;;;;;;;22.20;38.50;;;;;;5130505;27;20279;-72
2021/04/11 13:22:45;;;;;;;;;;;22.10;38.60;;;;;;5130528;27;19959;-70
2021/04/11 13:25:14;;;;;;;;;;;21.90;38.70;;;;;;5130535;27;19938;-71
2021/04/11 13:27:43;;;;;;;;;;;21.80;38.80;;;;;;5130578;28;19984;-71
2021/04/11 13:30:14;;;;;;;;;;;21.70;39.50;;;;;;5129489;28;19924;-71
2021/04/11 13:32:44;;;;;;;;;;;21.60;39.70;;;;;;5129389;28;19935;-70
2021/04/11 13:35:16;;;;;;;;;;;21.60;39.70;;;;;;5130219;28;20384;-71
2021/04/11 13:37:44;;;;;;;;;;;21.60;39.80;;;;;;5130297;28;19923;-71
2021/04/11 13:40:13;;;;;;;;;;;21.70;39.80;;;;;;5129785;28;19924;-71
2021/04/11 13:42:52;;;;;;;;;;;21.60;40.00;;;;;;5129799;28;19930;-71
2021/04/11 13:45:25;;;;;;;;;;;21.60;40.20;;;;;;5120294;28;19923;-72
2021/04/11 13:48:02;;;;;;;;;;;21.60;40.50;;;;;;5116705;28;19924;-72
2021/04/11 13:50:36;;;;;;;;;;;21.70;40.70;;;;;;5116085;28;19932;-72
2021/04/11 13:53:17;;;;;;;;;;;21.80;40.70;;;;;;5116428;28;20329;-72
2021/04/11 13:55:47;;;;;;;;;;;21.90;40.50;;;;;;5116362;28;19924;-71
2021/04/11 14:01:18;;;;;;;;;;;21.70;40.40;;;;;;5195347;22;19932;-77
2021/04/11 14:03:47;;;;;;;;;;;21.60;40.50;;;;;;5051172;28;20012;-79
2021/04/11 14:06:18;;;;;;;;;;;21.50;40.60;;;;;;5049043;28;20416;-80
2021/04/11 14:08:50;;;;;;;;;;;21.50;40.70;;;;;;5051402;28;19939;-79
2021/04/11 14:11:22;;;;;;;;;;;21.40;40.70;;;;;;5036060;28;19983;-79
2021/04/11 14:13:55;;;;;;;;;;;21.40;40.70;;;;;;5036338;28;20416;-79
2021/04/11 14:16:24;;;;;;;;;;;21.40;40.80;;;;;;5038985;28;19929;-79
2021/04/11 14:18:52;;;;;;;;;;;21.40;40.90;;;;;;5047752;28;19932;-80
2021/04/11 14:21:23;;;;;;;;;;;21.30;41.00;;;;;;5054683;28;20377;-79
2021/04/11 14:24:00;;;;;;;;;;;21.30;41.00;;;;;;5046600;28;19925;-79
2021/04/11 14:26:28;;;;;;;;;;;21.30;41.10;;;;;;5042895;28;20278;-78
2021/04/11 14:28:57;;;;;;;;;;;21.40;41.20;;;;;;5049307;28;20385;-79
2021/04/11 14:31:27;;;;;;;;;;;21.40;41.10;;;;;;5047462;28;19924;-80
2021/04/11 14:33:57;;;;;;;;;;;21.50;41.10;;;;;;5054647;28;19924;-80
2021/04/11 14:36:25;;;;;;;;;;;21.70;41.10;;;;;;5054432;28;20137;-80
2021/04/11 14:38:53;;;;;;;;;;;21.80;41.00;;;;;;5042864;28;19925;-80
2021/04/11 14:41:21;;;;;;;;;;;21.80;40.80;;;;;;5034879;28;20336;-79
2021/04/11 14:43:50;;;;;;;;;;;21.70;40.70;;;;;;5052602;28;19925;-78
2021/04/11 14:46:17;;;;;;;;;;;21.70;40.80;;;;;;5049127;28;19948;-79
2021/04/11 14:48:45;;;;;;;;;;;21.50;40.80;;;;;;5035130;28;19925;-80
2021/04/11 14:51:22;;;;;;;;;;;21.40;41.10;;;;;;5042496;28;20404;-79
2021/04/11 14:53:52;;;;;;;;;;;21.30;41.40;;;;;;5035721;28;19988;-79
2021/04/11 14:56:39;;;;;;;;;;;21.20;41.70;;;;;;5039462;28;19929;-80
2021/04/11 14:59:16;;;;;;;;;;;21.20;41.90;;;;;;5052363;28;19974;-78
2021/04/11 15:01:44;;;;;;;;;;;21.20;42.20;;;;;;5045752;28;20039;-78
2021/04/11 15:04:15;;;;;;;;;;;21.20;42.50;;;;;;5050381;28;19931;-79
2021/04/11 15:06:44;;;;;;;;;;;21.20;42.60;;;;;;5053966;28;20281;-79
2021/04/11 15:09:18;;;;;;;;;;;21.30;42.80;;;;;;5066293;28;19924;-79
2021/04/11 15:11:51;;;;;;;;;;;21.30;42.90;;;;;;5042200;28;20004;-79
2021/04/11 15:14:20;;;;;;;;;;;21.20;43.30;;;;;;5039883;28;20012;-79
2021/04/11 15:16:49;;;;;;;;;;;21.10;43.90;;;;;;5052921;28;19936;-79
2021/04/11 15:19:19;;;;;;;;;;;21.00;44.20;;;;;;5048123;28;19925;-79
2021/04/11 15:21:47;;;;;;;;;;;20.90;44.30;;;;;;5048190;28;19932;-79
2021/04/11 15:24:20;;;;;;;;;;;20.80;44.60;;;;;;5053272;28;19925;-79
2021/04/11 15:26:57;;;;;;;;;;;20.60;44.80;;;;;;5043780;28;19995;-79
2021/04/11 15:29:26;;;;;;;;;;;20.50;45.20;;;;;;5045797;28;19932;-80
2021/04/11 15:31:58;;;;;;;;;;;20.30;45.40;;;;;;5050434;28;19981;-80
2021/04/11 15:34:36;;;;;;;;;;;20.20;45.80;;;;;;5040195;28;19925;-81
2021/04/11 15:37:07;;;;;;;;;;;20.00;46.40;;;;;;5053459;28;19931;-78
2021/04/11 15:39:39;;;;;;;;;;;19.80;46.70;;;;;;5049266;28;19925;-78
2021/04/11 15:42:16;;;;;;;;;;;19.60;46.70;;;;;;5050009;28;20376;-78
2021/04/11 15:44:44;;;;;;;;;;;19.40;47.10;;;;;;5053073;28;20288;-77
2021/04/11 15:47:28;;;;;;;;;;;19.20;47.60;;;;;;5051650;28;19932;-79
2021/04/11 15:49:57;;;;;;;;;;;19.10;48.20;;;;;;5051654;28;19928;-78
2021/04/11 15:52:33;;;;;;;;;;;19.00;48.90;;;;;;5054489;28;19979;-78
2021/04/11 15:55:04;;;;;;;;;;;18.80;49.90;;;;;;5053131;28;19929;-78
2021/04/11 15:57:33;;;;;;;;;;;18.70;50.50;;;;;;5035465;28;20023;-78
2021/04/11 16:00:01;;;;;;;;;;;18.60;51.60;;;;;;5047527;28;20373;-79
2021/04/11 16:02:29;;;;;;;;;;;18.50;52.50;;;;;;5049525;28;19933;-78
2021/04/11 16:05:13;;;;;;;;;;;18.30;53.10;;;;;;5038697;28;19928;-78
2021/04/11 16:07:42;;;;;;;;;;;18.20;53.90;;;;;;5047972;28;19925;-78
2021/04/11 16:10:13;;;;;;;;;;;18.00;55.30;;;;;;5073007;28;19925;-78
2021/04/11 16:12:58;;;;;;;;;;;17.90;55.90;;;;;;5071579;28;19924;-78
2021/04/11 16:15:29;;;;;;;;;;;17.70;56.40;;;;;;5071601;28;19928;-79
2021/04/11 16:18:06;;;;;;;;;;;17.50;57.80;;;;;;5072962;28;19924;-79
2021/04/11 16:20:37;;;;;;;;;;;17.50;58.30;;;;;;5073167;28;19925;-77
2021/04/11 16:23:06;;;;;;;;;;;17.60;58.60;;;;;;5063813;28;19979;-80
2021/04/11 16:25:36;;;;;;;;;;;17.50;58.50;;;;;;5052942;28;19925;-78
2021/04/11 16:28:24;;;;;;;;;;;17.60;59.10;;;;;;5053034;28;19925;-78
2021/04/11 16:30:59;;;;;;;;;;;17.60;59.10;;;;;;5057454;28;19928;-78
2021/04/11 16:33:30;;;;;;;;;;;17.60;59.10;;;;;;5072725;28;19932;-79
2021/04/11 16:35:59;;;;;;;;;;;17.60;58.90;;;;;;5072844;28;20285;-79
2021/04/11 16:38:32;;;;;;;;;;;17.50;58.90;;;;;;5072278;28;19931;-79
2021/04/11 16:41:05;;;;;;;;;;;17.50;59.40;;;;;;5061573;28;19929;-84
2021/04/11 16:43:34;;;;;;;;;;;17.50;59.40;;;;;;5052087;28;19928;-81
2021/04/11 16:46:04;;;;;;;;;;;17.50;59.50;;;;;;5048000;28;19925;-80
2021/04/11 16:48:34;;;;;;;;;;;17.40;59.40;;;;;;5033225;28;20396;-81
2021/04/11 16:51:10;;;;;;;;;;;17.30;59.20;;;;;;5052718;28;19972;-83
2021/04/11 16:53:43;;;;;;;;;;;17.30;59.40;;;;;;5040752;28;19979;-83
2021/04/11 16:56:11;;;;;;;;;;;17.20;59.60;;;;;;5072689;28;19924;-81
2021/04/11 16:58:42;;;;;;;;;;;17.10;59.80;;;;;;5053555;28;19932;-83
2021/04/11 17:01:17;;;;;;;;;;;17.10;60.10;;;;;;5052075;28;20030;-80
2021/04/11 17:03:47;;;;;;;;;;;17.20;60.40;;;;;;5047151;28;19936;-81
2021/04/11 17:08:57;;;;;;;;;;;17.10;59.60;;;;;;5046307;28;19936;-82
2021/04/11 17:11:26;;;;;;;;;;;17.10;59.80;;;;;;5050390;28;19994;-81
2021/04/11 17:13:57;;;;;;;;;;;17.00;59.80;;;;;;5041929;28;19978;-82
2021/04/11 17:16:26;;;;;;;;;;;17.00;59.90;;;;;;5051913;28;19975;-80
2021/04/11 17:19:01;;;;;;;;;;;17.00;59.80;;;;;;5047451;28;19928;-81
2021/04/11 17:21:30;;;;;;;;;;;17.00;59.10;;;;;;5047556;28;20019;-81
2021/04/11 17:24:02;;;;;;;;;;;16.90;59.00;;;;;;5052842;28;20266;-80
2021/04/11 17:26:34;;;;;;;;;;;16.90;59.20;;;;;;5053225;28;20102;-81
2021/04/11 17:29:04;;;;;;;;;;;16.90;59.20;;;;;;5051339;28;19932;-81
2021/04/11 17:31:35;;;;;;;;;;;16.90;59.20;;;;;;5051194;28;20392;-80
2021/04/11 17:34:05;;;;;;;;;;;16.80;59.20;;;;;;5049893;28;19982;-80
2021/04/11 17:36:36;;;;;;;;;;;16.80;59.20;;;;;;5051065;28;20289;-81
2021/04/11 17:39:06;;;;;;;;;;;16.80;59.10;;;;;;5053094;28;19967;-81
2021/04/11 17:41:47;;;;;;;;;;;16.80;58.80;;;;;;5053196;28;19933;-80
2021/04/11 17:44:30;;;;;;;;;;;16.70;59.10;;;;;;5051847;28;19924;-80
2021/04/11 17:47:01;;;;;;;;;;;16.60;59.40;;;;;;5061090;28;19932;-80
2021/04/11 17:49:34;;;;;;;;;;;16.60;59.50;;;;;;5068235;28;19928;-80
2021/04/11 17:52:08;;;;;;;;;;;16.60;59.50;;;;;;5060146;28;19994;-80
2021/04/11 17:54:41;;;;;;;;;;;16.50;59.00;;;;;;5063680;28;19931;-80
2021/04/11 17:57:19;;;;;;;;;;;16.30;59.60;;;;;;5063586;28;19959;-81
2021/04/11 17:59:51;;;;;;;;;;;16.20;59.50;;;;;;5061928;28;20061;-80
2021/04/11 18:02:22;;;;;;;;;;;16.20;59.70;;;;;;5055400;28;20320;-80
2021/04/11 18:04:57;;;;;;;;;;;16.10;59.80;;;;;;5054820;28;20015;-80
2021/04/11 18:07:28;;;;;;;;;;;16.00;60.00;;;;;;5055144;28;19932;-80
2021/04/11 18:10:00;;;;;;;;;;;16.00;60.10;;;;;;5055013;28;19935;-80
2021/04/11 18:12:31;;;;;;;;;;;15.90;60.60;;;;;;5053870;28;19933;-80
2021/04/11 18:15:04;;;;;;;;;;;15.90;60.90;;;;;;5055714;28;20379;-80
2021/04/11 18:17:38;;;;;;;;;;;16.00;61.20;;;;;;5060766;28;19924;-80
2021/04/11 18:20:10;;;;;;;;;;;16.00;61.30;;;;;;5064416;28;19925;-79
2021/04/11 18:22:40;;;;;;;;;;;16.00;61.70;;;;;;5043813;28;19925;-76
2021/04/11 18:25:22;;;;;;;;;;;16.00;61.80;;;;;;5040183;28;19925;-77
2021/04/11 18:28:03;;;;;;;;;;;15.90;62.10;;;;;;5052803;28;19928;-78
2021/04/11 18:30:33;;;;;;;;;;;15.90;62.40;;;;;;5064910;28;19974;-79
2021/04/11 18:33:05;;;;;;;;;;;15.80;62.70;;;;;;5034673;28;19925;-77
2021/04/11 18:35:36;;;;;;;;;;;15.80;63.10;;;;;;5075555;28;19924;-78
2021/04/11 18:38:06;;;;;;;;;;;15.80;63.30;;;;;;5034922;28;19983;-81
2021/04/11 18:40:38;;;;;;;;;;;15.70;63.30;;;;;;5047427;28;19928;-80
2021/04/11 18:43:08;;;;;;;;;;;15.70;63.90;;;;;;5053506;28;19925;-79
2021/04/11 18:45:38;;;;;;;;;;;15.70;64.30;;;;;;5046182;28;19954;-77
2021/04/11 18:48:11;;;;;;;;;;;15.70;64.40;;;;;;5037605;28;19925;-78
2021/04/11 18:50:56;;;;;;;;;;;15.70;64.80;;;;;;5052297;28;19928;-79
2021/04/11 18:53:31;;;;;;;;;;;15.60;65.20;;;;;;5043785;28;19924;-78
2021/04/11 18:56:02;;;;;;;;;;;15.60;65.50;;;;;;5039501;28;20079;-77
2021/04/11 18:58:38;;;;;;;;;;;15.50;65.90;;;;;;5045474;28;19975;-77
2021/04/11 19:01:08;;;;;;;;;;;15.50;66.90;;;;;;5049847;28;19925;-76
2021/04/11 19:03:36;;;;;;;;;;;15.50;66.70;;;;;;5053637;28;19932;-76
2021/04/11 19:06:12;;;;;;;;;;;15.40;67.00;;;;;;5043107;28;19979;-78
2021/04/11 19:08:56;;;;;;;;;;;15.40;67.20;;;;;;5038993;28;20377;-76
2021/04/11 19:11:27;;;;;;;;;;;15.40;67.10;;;;;;5036714;28;19940;-75
2021/04/11 19:14:05;;;;;;;;;;;15.30;67.50;;;;;;5054091;28;19925;-74
2021/04/11 19:16:55;;;;;;;;;;;15.30;68.00;;;;;;5034305;28;19925;-75
2021/04/11 19:19:36;;;;;;;;;;;15.20;68.10;;;;;;5028787;28;19929;-74
2021/04/11 19:22:10;;;;;;;;;;;15.20;68.50;;;;;;5028417;28;19928;-76
2021/04/11 19:24:46;;;;;;;;;;;15.20;68.90;;;;;;5050301;28;19925;-75
2021/04/11 19:27:23;;;;;;;;;;;15.20;69.10;;;;;;5047777;28;20365;-75
2021/04/11 19:30:09;;;;;;;;;;;15.10;69.20;;;;;;5043317;28;19971;-75
2021/04/11 19:33:02;;;;;;;;;;;15.10;69.80;;;;;;5073500;28;19931;-75
2021/04/11 19:35:52;;;;;;;;;;;15.10;70.20;;;;;;5056755;28;19933;-75
2021/04/11 19:38:36;;;;;;;;;;;15.10;70.60;;;;;;5038079;28;19987;-76
2021/04/11 19:41:26;;;;;;;;;;;15.00;71.20;;;;;;5041431;28;19936;-76
2021/04/11 19:44:24;;;;;;;;;;;15.00;70.50;;;;;;5056540;28;19925;-74
2021/04/11 19:46:55;;;;;;;;;;;14.90;69.10;;;;;;4972798;28;20013;-75
2021/04/11 19:49:42;;;;;;;;;;;14.80;69.60;;;;;;5022113;28;19925;-76
2021/04/11 19:52:30;;;;;;;;;;;14.60;68.40;;;;;;5035165;28;19936;-75
2021/04/11 19:55:06;;;;;;;;;;;14.40;69.10;;;;;;5033327;28;20377;-76
2021/04/11 19:57:40;;;;;;;;;;;14.30;69.30;;;;;;5051977;28;19932;-76
2021/04/11 20:00:17;;;;;;;;;;;14.20;69.40;;;;;;5047542;28;20340;-76
2021/04/11 20:02:52;;;;;;;;;;;14.10;68.70;;;;;;5015680;28;19925;-76
2021/04/11 20:05:28;;;;;;;;;;;14.00;68.50;;;;;;5016563;28;19941;-76
2021/04/11 20:08:04;;;;;;;;;;;13.90;69.00;;;;;;5030632;28;19967;-75
2021/04/11 20:10:51;;;;;;;;;;;13.80;68.60;;;;;;5032526;28;19932;-74
2021/04/11 20:13:35;;;;;;;;;;;13.80;68.20;;;;;;5016865;28;19925;-74
2021/04/11 20:16:11;;;;;;;;;;;13.70;68.20;;;;;;5009247;28;19979;-74
2021/04/11 20:18:47;;;;;;;;;;;13.60;68.80;;;;;;5027565;28;20309;-74
2021/04/11 20:21:19;;;;;;;;;;;13.60;69.40;;;;;;5031411;28;19932;-74
2021/04/11 20:23:56;;;;;;;;;;;13.50;68.40;;;;;;5029284;28;20430;-74
2021/04/11 20:26:35;;;;;;;;;;;13.40;67.90;;;;;;5029790;28;19956;-74
2021/04/11 20:29:14;;;;;;;;;;;13.30;68.60;;;;;;5032672;28;19925;-75
2021/04/11 20:31:57;;;;;;;;;;;13.30;68.60;;;;;;5023652;28;19926;-75
2021/04/11 20:34:42;;;;;;;;;;;13.30;68.60;;;;;;5029403;28;19929;-76
2021/04/11 20:37:24;;;;;;;;;;;13.40;68.30;;;;;;5013332;28;19926;-76
2021/04/11 20:40:02;;;;;;;;;;;13.40;68.00;;;;;;5016580;28;20396;-76
2021/04/11 20:42:52;;;;;;;;;;;13.40;67.40;;;;;;5024419;28;19929;-76
2021/04/11 20:45:22;;;;;;;;;;;13.40;67.30;;;;;;5004422;28;20004;-75
2021/04/11 20:47:59;;;;;;;;;;;13.30;66.10;;;;;;5012891;28;19933;-76
2021/04/11 20:50:30;;;;;;;;;;;13.20;66.20;;;;;;5014034;28;19925;-75
2021/04/11 20:53:14;;;;;;;;;;;13.20;66.40;;;;;;5030679;28;19930;-75
2021/04/11 20:55:49;;;;;;;;;;;13.10;66.20;;;;;;5019653;28;19925;-75
2021/04/11 20:58:22;;;;;;;;;;;13.10;66.40;;;;;;5035998;28;19925;-76
2021/04/11 21:00:53;;;;;;;;;;;13.10;66.40;;;;;;5033236;28;19932;-75
2021/04/11 21:03:29;;;;;;;;;;;13.00;66.50;;;;;;5037601;28;19933;-75
2021/04/11 21:06:01;;;;;;;;;;;12.90;66.30;;;;;;5051423;28;19931;-75
2021/04/11 21:08:42;;;;;;;;;;;12.90;66.00;;;;;;5056324;28;20284;-75
2021/04/11 21:11:20;;;;;;;;;;;12.80;66.00;;;;;;5007037;28;19924;-75
2021/04/11 21:13:59;;;;;;;;;;;12.70;65.90;;;;;;5054577;28;19936;-76
2021/04/11 21:16:41;;;;;;;;;;;12.70;65.50;;;;;;5045204;28;19925;-76
2021/04/11 21:19:17;;;;;;;;;;;12.70;66.00;;;;;;5051251;28;19925;-77
2021/04/11 21:21:48;;;;;;;;;;;12.70;66.10;;;;;;5056127;28;19929;-77
2021/04/11 21:24:26;;;;;;;;;;;12.60;66.70;;;;;;5043644;28;19924;-76
2021/04/11 21:27:06;;;;;;;;;;;12.60;66.70;;;;;;5041306;28;19994;-77
2021/04/11 21:29:37;;;;;;;;;;;12.60;67.00;;;;;;5041841;28;19932;-76
2021/04/11 21:32:07;;;;;;;;;;;12.50;67.00;;;;;;5065291;28;19936;-76
2021/04/11 21:34:52;;;;;;;;;;;12.50;67.80;;;;;;5049597;28;19925;-77
2021/04/11 21:37:22;;;;;;;;;;;12.50;67.20;;;;;;5042126;28;19979;-77
2021/04/11 21:40:01;;;;;;;;;;;12.40;67.10;;;;;;5057564;28;19932;-77
2021/04/11 21:42:33;;;;;;;;;;;12.30;66.90;;;;;;5055967;28;19928;-76
2021/04/11 21:45:02;;;;;;;;;;;12.30;67.10;;;;;;5055870;28;20035;-77
2021/04/11 21:47:34;;;;;;;;;;;12.30;67.10;;;;;;5039306;28;19929;-76
2021/04/11 21:50:19;;;;;;;;;;;12.20;67.40;;;;;;5055080;28;19925;-77
2021/04/11 21:52:54;;;;;;;;;;;12.30;67.40;;;;;;5035763;28;19929;-77
2021/04/11 21:55:31;;;;;;;;;;;12.30;67.50;;;;;;5038491;28;19933;-78
2021/04/11 21:58:15;;;;;;;;;;;12.30;67.10;;;;;;5039513;28;21007;-77
2021/04/11 22:00:44;;;;;;;;;;;12.30;67.00;;;;;;5056954;28;19925;-78
2021/04/11 22:03:16;;;;;;;;;;;12.20;66.80;;;;;;5058390;28;19924;-78
2021/04/11 22:05:47;;;;;;;;;;;12.20;66.70;;;;;;5050516;28;19925;-78
2021/04/11 22:08:19;;;;;;;;;;;12.20;66.70;;;;;;5049634;28;20056;-78
2021/04/11 22:10:48;;;;;;;;;;;12.20;66.60;;;;;;5053690;28;19925;-77
2021/04/11 22:13:23;;;;;;;;;;;12.10;66.10;;;;;;5054892;28;19925;-77
2021/04/11 22:15:53;;;;;;;;;;;12.10;66.10;;;;;;5035159;28;20385;-77
2021/04/11 22:18:24;;;;;;;;;;;12.00;65.10;;;;;;5038785;28;20278;-77
2021/04/11 22:20:53;;;;;;;;;;;11.90;64.80;;;;;;5053485;28;20293;-77
2021/04/11 22:23:20;;;;;;;;;;;11.80;65.00;;;;;;5037410;28;20352;-77
2021/04/11 22:25:50;;;;;;;;;;;11.80;65.30;;;;;;5042113;28;19925;-77
2021/04/11 22:28:26;;;;;;;;;;;11.70;65.20;;;;;;5051640;28;20416;-77
2021/04/11 22:30:57;;;;;;;;;;;11.60;65.60;;;;;;5055685;28;19925;-77
2021/04/11 22:33:25;;;;;;;;;;;11.60;65.80;;;;;;5045541;28;19925;-77
2021/04/11 22:35:53;;;;;;;;;;;11.60;65.40;;;;;;5035096;28;20298;-77
2021/04/11 22:38:23;;;;;;;;;;;11.50;65.40;;;;;;5045720;28;19925;-77
2021/04/11 22:40:52;;;;;;;;;;;11.50;65.40;;;;;;5046718;28;20389;-77
2021/04/11 22:43:20;;;;;;;;;;;11.40;65.90;;;;;;5053962;28;19925;-77
2021/04/11 22:45:49;;;;;;;;;;;11.50;65.70;;;;;;5050733;28;19925;-77
2021/04/11 22:48:19;;;;;;;;;;;11.40;65.90;;;;;;5054541;28;19925;-77
2021/04/11 22:50:49;;;;;;;;;;;11.40;65.80;;;;;;5050612;28;20284;-78
2021/04/11 22:53:18;;;;;;;;;;;11.50;65.90;;;;;;5038702;28;19928;-77
2021/04/11 22:55:47;;;;;;;;;;;11.40;65.70;;;;;;5053790;28;19925;-78
2021/04/11 22:58:21;;;;;;;;;;;11.40;65.50;;;;;;5042170;28;19924;-77
2021/04/11 23:00:51;;;;;;;;;;;11.40;65.60;;;;;;5053426;28;19970;-77
2021/04/11 23:03:21;;;;;;;;;;;11.30;66.10;;;;;;5054250;28;20369;-77
2021/04/11 23:05:49;;;;;;;;;;;11.20;65.60;;;;;;5060863;28;19932;-77
2021/04/11 23:08:18;;;;;;;;;;;11.20;66.90;;;;;;5052610;28;19929;-78
2021/04/11 23:10:51;;;;;;;;;;;11.20;67.00;;;;;;5051854;28;19925;-78
2021/04/11 23:13:19;;;;;;;;;;;11.30;66.80;;;;;;5049162;28;20323;-78
2021/04/11 23:15:46;;;;;;;;;;;11.20;64.90;;;;;;5053852;28;19925;-76
2021/04/11 23:18:24;;;;;;;;;;;11.20;65.20;;;;;;5053271;28;19935;-78
2021/04/11 23:20:57;;;;;;;;;;;11.10;65.40;;;;;;5043709;28;20341;-78
2021/04/11 23:23:27;;;;;;;;;;;11.10;66.20;;;;;;5045966;28;19929;-78
2021/04/11 23:25:57;;;;;;;;;;;11.20;66.60;;;;;;5032490;28;19932;-78
2021/04/11 23:28:29;;;;;;;;;;;11.20;66.20;;;;;;5053183;28;19924;-78
2021/04/11 23:30:57;;;;;;;;;;;11.10;66.00;;;;;;5058760;28;19931;-78
2021/04/11 23:33:27;;;;;;;;;;;11.10;66.00;;;;;;5050799;28;20405;-77
2021/04/11 23:35:57;;;;;;;;;;;11.00;65.30;;;;;;5033899;28;19925;-77
2021/04/11 23:38:26;;;;;;;;;;;11.00;65.70;;;;;;5049536;28;20369;-77
2021/04/11 23:40:58;;;;;;;;;;;10.90;66.30;;;;;;5053778;28;19954;-75
2021/04/11 23:43:30;;;;;;;;;;;10.90;66.30;;;;;;5040829;28;19975;-77
2021/04/11 23:45:58;;;;;;;;;;;10.80;66.70;;;;;;5053619;28;19971;-74
2021/04/11 23:48:30;;;;;;;;;;;10.80;66.50;;;;;;5053121;28;19925;-74
2021/04/11 23:51:04;;;;;;;;;;;10.70;66.00;;;;;;5033063;28;20266;-74
2021/04/11 23:53:37;;;;;;;;;;;10.60;66.50;;;;;;5041263;28;19932;-74
2021/04/11 23:56:06;;;;;;;;;;;10.50;66.00;;;;;;5051619;28;20452;-74
2021/04/11 23:58:34;;;;;;;;;;;10.50;66.70;;;;;;5045315;28;20340;-74
